sensor_id;sensor_type;location;lat;lon;timestamp;P1;durP1;ratioP1;P2;durP2;ratioP2
18659;SDS011;9459;50.254;19.014;2023-07-08T00:00:28;7.78;;;5.15;;
18659;SDS011;9459;50.254;19.014;2023-07-08T00:03:16;6.95;;;4.70;;
18659;SDS011;9459;50.254;19.014;2023-07-08T00:05:45;6.97;;;4.57;;
18659;SDS011;9459;50.254;19.014;2023-07-08T00:08:16;6.05;;;4.15;;
18659;SDS011;9459;50.254;19.014;2023-07-08T00:10:46;6.82;;;4.35;;
18659;SDS011;9459;50.254;19.014;2023-07-08T00:13:14;6.82;;;4.30;;
18659;SDS011;9459;50.254;19.014;2023-07-08T00:15:43;5.93;;;3.85;;
18659;SDS011;9459;50.254;19.014;2023-07-08T00:18:12;5.75;;;4.28;;
18659;SDS011;9459;50.254;19.014;2023-07-08T00:20:42;5.38;;;4.18;;
18659;SDS011;9459;50.254;19.014;2023-07-08T00:23:12;6.63;;;4.30;;
18659;SDS011;9459;50.254;19.014;2023-07-08T00:25:42;6.38;;;4.25;;
18659;SDS011;9459;50.254;19.014;2023-07-08T00:28:12;5.07;;;4.13;;
18659;SDS011;9459;50.254;19.014;2023-07-08T00:30:42;5.88;;;3.65;;
18659;SDS011;9459;50.254;19.014;2023-07-08T00:33:11;6.97;;;4.07;;
18659;SDS011;9459;50.254;19.014;2023-07-08T00:35:40;7.60;;;4.13;;
18659;SDS011;9459;50.254;19.014;2023-07-08T00:38:11;5.53;;;4.43;;
18659;SDS011;9459;50.254;19.014;2023-07-08T00:40:50;7.10;;;4.47;;
18659;SDS011;9459;50.254;19.014;2023-07-08T00:43:21;7.38;;;4.70;;
18659;SDS011;9459;50.254;19.014;2023-07-08T00:45:53;6.20;;;4.32;;
18659;SDS011;9459;50.254;19.014;2023-07-08T00:48:30;5.47;;;4.47;;
18659;SDS011;9459;50.254;19.014;2023-07-08T00:51:00;6.40;;;4.50;;
18659;SDS011;9459;50.254;19.014;2023-07-08T00:53:29;5.78;;;4.80;;
18659;SDS011;9459;50.254;19.014;2023-07-08T00:56:02;6.63;;;4.80;;
18659;SDS011;9459;50.254;19.014;2023-07-08T00:58:33;6.03;;;4.47;;
18659;SDS011;9459;50.254;19.014;2023-07-08T01:01:03;8.40;;;4.28;;
18659;SDS011;9459;50.254;19.014;2023-07-08T01:03:33;5.47;;;4.35;;
18659;SDS011;9459;50.254;19.014;2023-07-08T01:06:07;5.47;;;4.07;;
18659;SDS011;9459;50.254;19.014;2023-07-08T01:08:35;5.50;;;3.78;;
18659;SDS011;9459;50.254;19.014;2023-07-08T01:11:05;5.50;;;4.32;;
18659;SDS011;9459;50.254;19.014;2023-07-08T01:13:34;11.38;;;7.05;;
18659;SDS011;9459;50.254;19.014;2023-07-08T01:16:04;15.48;;;6.90;;
18659;SDS011;9459;50.254;19.014;2023-07-08T01:18:32;12.20;;;6.75;;
18659;SDS011;9459;50.254;19.014;2023-07-08T01:21:03;11.60;;;7.28;;
18659;SDS011;9459;50.254;19.014;2023-07-08T01:23:35;10.65;;;6.97;;
18659;SDS011;9459;50.254;19.014;2023-07-08T01:26:04;11.93;;;7.72;;
18659;SDS011;9459;50.254;19.014;2023-07-08T01:28:33;9.20;;;6.53;;
18659;SDS011;9459;50.254;19.014;2023-07-08T01:31:02;10.05;;;6.80;;
18659;SDS011;9459;50.254;19.014;2023-07-08T01:33:31;16.65;;;7.53;;
18659;SDS011;9459;50.254;19.014;2023-07-08T01:36:01;14.25;;;7.97;;
18659;SDS011;9459;50.254;19.014;2023-07-08T01:38:29;9.60;;;6.22;;
18659;SDS011;9459;50.254;19.014;2023-07-08T01:40:59;13.00;;;7.95;;
18659;SDS011;9459;50.254;19.014;2023-07-08T01:43:28;20.50;;;8.27;;
18659;SDS011;9459;50.254;19.014;2023-07-08T01:45:57;15.57;;;8.05;;
18659;SDS011;9459;50.254;19.014;2023-07-08T01:48:27;14.02;;;8.50;;
18659;SDS011;9459;50.254;19.014;2023-07-08T01:51:00;16.50;;;8.60;;
18659;SDS011;9459;50.254;19.014;2023-07-08T01:53:31;11.40;;;7.88;;
18659;SDS011;9459;50.254;19.014;2023-07-08T01:56:02;14.35;;;8.05;;
18659;SDS011;9459;50.254;19.014;2023-07-08T01:58:30;14.05;;;7.75;;
18659;SDS011;9459;50.254;19.014;2023-07-08T02:00:59;13.95;;;8.00;;
18659;SDS011;9459;50.254;19.014;2023-07-08T02:03:28;11.15;;;7.88;;
18659;SDS011;9459;50.254;19.014;2023-07-08T02:05:57;16.90;;;8.23;;
18659;SDS011;9459;50.254;19.014;2023-07-08T02:08:25;13.85;;;11.07;;
18659;SDS011;9459;50.254;19.014;2023-07-08T02:10:55;16.50;;;12.52;;
18659;SDS011;9459;50.254;19.014;2023-07-08T02:13:26;17.17;;;13.02;;
18659;SDS011;9459;50.254;19.014;2023-07-08T02:15:55;19.60;;;12.65;;
18659;SDS011;9459;50.254;19.014;2023-07-08T02:18:23;17.05;;;11.95;;
18659;SDS011;9459;50.254;19.014;2023-07-08T02:20:52;19.30;;;11.32;;
18659;SDS011;9459;50.254;19.014;2023-07-08T02:23:22;15.50;;;10.73;;
18659;SDS011;9459;50.254;19.014;2023-07-08T02:25:51;11.77;;;8.30;;
18659;SDS011;9459;50.254;19.014;2023-07-08T02:28:19;11.45;;;8.15;;
18659;SDS011;9459;50.254;19.014;2023-07-08T02:30:49;11.65;;;8.10;;
18659;SDS011;9459;50.254;19.014;2023-07-08T02:33:18;13.35;;;8.48;;
18659;SDS011;9459;50.254;19.014;2023-07-08T02:35:46;13.13;;;9.07;;
18659;SDS011;9459;50.254;19.014;2023-07-08T02:38:15;15.50;;;9.95;;
18659;SDS011;9459;50.254;19.014;2023-07-08T02:40:43;8.85;;;7.75;;
18659;SDS011;9459;50.254;19.014;2023-07-08T02:43:11;11.15;;;7.57;;
18659;SDS011;9459;50.254;19.014;2023-07-08T02:45:40;15.77;;;9.35;;
18659;SDS011;9459;50.254;19.014;2023-07-08T02:48:09;11.70;;;9.00;;
18659;SDS011;9459;50.254;19.014;2023-07-08T02:50:38;10.52;;;8.23;;
18659;SDS011;9459;50.254;19.014;2023-07-08T02:53:06;12.10;;;8.85;;
18659;SDS011;9459;50.254;19.014;2023-07-08T02:55:35;16.83;;;11.13;;
18659;SDS011;9459;50.254;19.014;2023-07-08T02:58:03;16.27;;;10.90;;
18659;SDS011;9459;50.254;19.014;2023-07-08T03:00:32;12.95;;;9.40;;
18659;SDS011;9459;50.254;19.014;2023-07-08T03:03:00;21.67;;;11.55;;
18659;SDS011;9459;50.254;19.014;2023-07-08T03:05:30;15.90;;;10.93;;
18659;SDS011;9459;50.254;19.014;2023-07-08T03:07:58;19.38;;;11.25;;
18659;SDS011;9459;50.254;19.014;2023-07-08T03:10:27;13.82;;;11.07;;
18659;SDS011;9459;50.254;19.014;2023-07-08T03:12:55;13.52;;;9.75;;
18659;SDS011;9459;50.254;19.014;2023-07-08T03:15:24;17.42;;;10.45;;
18659;SDS011;9459;50.254;19.014;2023-07-08T03:17:52;15.00;;;10.25;;
18659;SDS011;9459;50.254;19.014;2023-07-08T03:20:24;17.08;;;10.82;;
18659;SDS011;9459;50.254;19.014;2023-07-08T03:22:54;18.23;;;10.10;;
18659;SDS011;9459;50.254;19.014;2023-07-08T03:25:22;17.95;;;9.48;;
18659;SDS011;9459;50.254;19.014;2023-07-08T03:27:51;15.63;;;9.02;;
18659;SDS011;9459;50.254;19.014;2023-07-08T03:30:22;11.23;;;9.10;;
18659;SDS011;9459;50.254;19.014;2023-07-08T03:32:50;12.95;;;8.90;;
18659;SDS011;9459;50.254;19.014;2023-07-08T03:35:20;12.35;;;8.73;;
18659;SDS011;9459;50.254;19.014;2023-07-08T03:37:49;12.38;;;8.68;;
18659;SDS011;9459;50.254;19.014;2023-07-08T03:40:19;11.63;;;8.77;;
18659;SDS011;9459;50.254;19.014;2023-07-08T03:42:48;10.05;;;7.80;;
18659;SDS011;9459;50.254;19.014;2023-07-08T03:45:17;11.63;;;8.02;;
18659;SDS011;9459;50.254;19.014;2023-07-08T03:47:45;11.73;;;8.15;;
18659;SDS011;9459;50.254;19.014;2023-07-08T03:50:17;14.95;;;8.82;;
18659;SDS011;9459;50.254;19.014;2023-07-08T03:52:46;12.88;;;8.30;;
18659;SDS011;9459;50.254;19.014;2023-07-08T03:55:17;12.60;;;8.93;;
18659;SDS011;9459;50.254;19.014;2023-07-08T03:57:47;12.93;;;8.90;;
18659;SDS011;9459;50.254;19.014;2023-07-08T04:00:15;13.10;;;8.57;;
18659;SDS011;9459;50.254;19.014;2023-07-08T04:02:46;12.25;;;8.70;;
18659;SDS011;9459;50.254;19.014;2023-07-08T04:05:15;11.88;;;8.40;;
18659;SDS011;9459;50.254;19.014;2023-07-08T04:07:44;11.95;;;8.05;;
18659;SDS011;9459;50.254;19.014;2023-07-08T04:10:13;11.10;;;7.45;;
18659;SDS011;9459;50.254;19.014;2023-07-08T04:12:43;13.25;;;8.50;;
18659;SDS011;9459;50.254;19.014;2023-07-08T04:15:13;10.32;;;7.88;;
18659;SDS011;9459;50.254;19.014;2023-07-08T04:17:43;10.10;;;8.13;;
18659;SDS011;9459;50.254;19.014;2023-07-08T04:20:14;12.88;;;8.27;;
18659;SDS011;9459;50.254;19.014;2023-07-08T04:22:45;11.18;;;7.80;;
18659;SDS011;9459;50.254;19.014;2023-07-08T04:25:14;12.70;;;7.53;;
18659;SDS011;9459;50.254;19.014;2023-07-08T04:27:43;9.35;;;7.28;;
18659;SDS011;9459;50.254;19.014;2023-07-08T04:30:17;11.70;;;7.75;;
18659;SDS011;9459;50.254;19.014;2023-07-08T04:32:49;10.77;;;7.30;;
18659;SDS011;9459;50.254;19.014;2023-07-08T04:35:18;12.77;;;8.13;;
18659;SDS011;9459;50.254;19.014;2023-07-08T04:37:46;11.82;;;7.72;;
18659;SDS011;9459;50.254;19.014;2023-07-08T04:40:17;12.48;;;8.10;;
18659;SDS011;9459;50.254;19.014;2023-07-08T04:42:47;11.13;;;7.93;;
18659;SDS011;9459;50.254;19.014;2023-07-08T04:45:19;10.25;;;7.55;;
18659;SDS011;9459;50.254;19.014;2023-07-08T04:47:48;11.75;;;7.53;;
18659;SDS011;9459;50.254;19.014;2023-07-08T04:50:20;11.43;;;6.90;;
18659;SDS011;9459;50.254;19.014;2023-07-08T04:52:48;11.35;;;7.00;;
18659;SDS011;9459;50.254;19.014;2023-07-08T04:55:18;8.93;;;6.80;;
18659;SDS011;9459;50.254;19.014;2023-07-08T04:57:46;10.75;;;6.75;;
18659;SDS011;9459;50.254;19.014;2023-07-08T05:00:15;9.70;;;7.38;;
18659;SDS011;9459;50.254;19.014;2023-07-08T05:05:16;12.38;;;7.88;;
18659;SDS011;9459;50.254;19.014;2023-07-08T05:07:44;10.25;;;7.53;;
18659;SDS011;9459;50.254;19.014;2023-07-08T05:10:13;10.38;;;7.82;;
18659;SDS011;9459;50.254;19.014;2023-07-08T05:12:41;9.32;;;7.05;;
18659;SDS011;9459;50.254;19.014;2023-07-08T05:15:10;11.07;;;8.15;;
18659;SDS011;9459;50.254;19.014;2023-07-08T05:17:39;11.25;;;7.88;;
18659;SDS011;9459;50.254;19.014;2023-07-08T05:20:11;9.02;;;6.80;;
18659;SDS011;9459;50.254;19.014;2023-07-08T05:22:40;12.45;;;7.90;;
18659;SDS011;9459;50.254;19.014;2023-07-08T05:25:10;9.82;;;6.72;;
18659;SDS011;9459;50.254;19.014;2023-07-08T05:27:38;10.35;;;7.22;;
18659;SDS011;9459;50.254;19.014;2023-07-08T05:30:08;10.10;;;7.30;;
18659;SDS011;9459;50.254;19.014;2023-07-08T05:32:40;12.82;;;7.38;;
18659;SDS011;9459;50.254;19.014;2023-07-08T05:35:10;10.23;;;7.60;;
18659;SDS011;9459;50.254;19.014;2023-07-08T05:37:38;9.90;;;6.47;;
18659;SDS011;9459;50.254;19.014;2023-07-08T05:40:08;12.32;;;7.55;;
18659;SDS011;9459;50.254;19.014;2023-07-08T05:42:36;10.20;;;7.00;;
18659;SDS011;9459;50.254;19.014;2023-07-08T05:45:05;10.05;;;7.20;;
18659;SDS011;9459;50.254;19.014;2023-07-08T05:47:36;9.88;;;7.43;;
18659;SDS011;9459;50.254;19.014;2023-07-08T05:50:06;12.52;;;7.38;;
18659;SDS011;9459;50.254;19.014;2023-07-08T05:52:36;8.73;;;5.95;;
18659;SDS011;9459;50.254;19.014;2023-07-08T05:55:05;9.00;;;6.65;;
18659;SDS011;9459;50.254;19.014;2023-07-08T05:57:34;8.88;;;6.45;;
18659;SDS011;9459;50.254;19.014;2023-07-08T06:00:05;7.28;;;5.63;;
18659;SDS011;9459;50.254;19.014;2023-07-08T06:02:34;7.95;;;6.05;;
18659;SDS011;9459;50.254;19.014;2023-07-08T06:05:03;8.30;;;6.03;;
18659;SDS011;9459;50.254;19.014;2023-07-08T06:07:32;7.95;;;5.80;;
18659;SDS011;9459;50.254;19.014;2023-07-08T06:10:02;7.75;;;6.32;;
18659;SDS011;9459;50.254;19.014;2023-07-08T06:12:31;8.48;;;6.28;;
18659;SDS011;9459;50.254;19.014;2023-07-08T06:14:59;7.57;;;5.82;;
18659;SDS011;9459;50.254;19.014;2023-07-08T06:17:28;10.18;;;5.90;;
18659;SDS011;9459;50.254;19.014;2023-07-08T06:19:57;8.07;;;5.95;;
18659;SDS011;9459;50.254;19.014;2023-07-08T06:22:25;6.80;;;5.22;;
18659;SDS011;9459;50.254;19.014;2023-07-08T06:24:57;8.27;;;5.70;;
18659;SDS011;9459;50.254;19.014;2023-07-08T06:27:26;8.23;;;5.55;;
18659;SDS011;9459;50.254;19.014;2023-07-08T06:29:55;8.77;;;5.85;;
18659;SDS011;9459;50.254;19.014;2023-07-08T06:32:23;7.13;;;5.28;;
18659;SDS011;9459;50.254;19.014;2023-07-08T06:34:53;6.33;;;4.43;;
18659;SDS011;9459;50.254;19.014;2023-07-08T06:37:21;6.47;;;4.75;;
18659;SDS011;9459;50.254;19.014;2023-07-08T06:39:52;6.03;;;5.10;;
18659;SDS011;9459;50.254;19.014;2023-07-08T06:42:20;6.05;;;5.18;;
18659;SDS011;9459;50.254;19.014;2023-07-08T06:44:50;7.90;;;4.45;;
18659;SDS011;9459;50.254;19.014;2023-07-08T06:47:20;6.00;;;4.05;;
18659;SDS011;9459;50.254;19.014;2023-07-08T06:52:17;5.55;;;3.88;;
18659;SDS011;9459;50.254;19.014;2023-07-08T06:54:46;4.97;;;3.80;;
18659;SDS011;9459;50.254;19.014;2023-07-08T06:57:14;3.00;;;2.45;;
18659;SDS011;9459;50.254;19.014;2023-07-08T06:59:42;3.25;;;2.30;;
18659;SDS011;9459;50.254;19.014;2023-07-08T07:02:12;4.05;;;2.30;;
18659;SDS011;9459;50.254;19.014;2023-07-08T07:04:41;4.80;;;2.90;;
18659;SDS011;9459;50.254;19.014;2023-07-08T07:07:09;4.95;;;2.83;;
18659;SDS011;9459;50.254;19.014;2023-07-08T07:09:38;6.15;;;3.22;;
18659;SDS011;9459;50.254;19.014;2023-07-08T07:12:07;4.90;;;2.55;;
18659;SDS011;9459;50.254;19.014;2023-07-08T07:14:36;4.15;;;2.80;;
18659;SDS011;9459;50.254;19.014;2023-07-08T07:17:07;4.50;;;3.10;;
18659;SDS011;9459;50.254;19.014;2023-07-08T07:19:37;3.92;;;2.45;;
18659;SDS011;9459;50.254;19.014;2023-07-08T07:22:05;4.63;;;2.95;;
18659;SDS011;9459;50.254;19.014;2023-07-08T07:24:34;3.97;;;3.10;;
18659;SDS011;9459;50.254;19.014;2023-07-08T07:27:02;2.67;;;2.40;;
18659;SDS011;9459;50.254;19.014;2023-07-08T07:29:38;3.47;;;2.90;;
18659;SDS011;9459;50.254;19.014;2023-07-08T07:32:08;3.30;;;2.83;;
18659;SDS011;9459;50.254;19.014;2023-07-08T07:34:38;4.03;;;2.88;;
18659;SDS011;9459;50.254;19.014;2023-07-08T07:37:07;4.57;;;3.35;;
18659;SDS011;9459;50.254;19.014;2023-07-08T07:39:39;3.75;;;2.90;;
18659;SDS011;9459;50.254;19.014;2023-07-08T07:42:07;5.95;;;3.63;;
18659;SDS011;9459;50.254;19.014;2023-07-08T07:44:37;7.78;;;3.33;;
18659;SDS011;9459;50.254;19.014;2023-07-08T07:47:06;5.30;;;3.13;;
18659;SDS011;9459;50.254;19.014;2023-07-08T07:49:35;5.05;;;3.03;;
18659;SDS011;9459;50.254;19.014;2023-07-08T07:52:06;4.37;;;3.07;;
18659;SDS011;9459;50.254;19.014;2023-07-08T07:54:37;4.30;;;2.60;;
18659;SDS011;9459;50.254;19.014;2023-07-08T07:57:06;2.67;;;2.30;;
18659;SDS011;9459;50.254;19.014;2023-07-08T07:59:34;3.25;;;2.47;;
18659;SDS011;9459;50.254;19.014;2023-07-08T08:02:05;3.25;;;2.70;;
18659;SDS011;9459;50.254;19.014;2023-07-08T08:04:33;3.53;;;2.25;;
18659;SDS011;9459;50.254;19.014;2023-07-08T08:07:02;3.45;;;1.95;;
18659;SDS011;9459;50.254;19.014;2023-07-08T08:09:33;3.65;;;2.20;;
18659;SDS011;9459;50.254;19.014;2023-07-08T08:14:30;2.13;;;1.60;;
18659;SDS011;9459;50.254;19.014;2023-07-08T08:16:58;3.28;;;1.95;;
18659;SDS011;9459;50.254;19.014;2023-07-08T08:19:27;2.42;;;1.80;;
18659;SDS011;9459;50.254;19.014;2023-07-08T08:21:55;2.43;;;1.87;;
18659;SDS011;9459;50.254;19.014;2023-07-08T08:24:24;1.67;;;1.55;;
18659;SDS011;9459;50.254;19.014;2023-07-08T08:26:55;2.55;;;1.67;;
18659;SDS011;9459;50.254;19.014;2023-07-08T08:29:23;4.18;;;1.88;;
18659;SDS011;9459;50.254;19.014;2023-07-08T08:31:52;2.58;;;1.80;;
18659;SDS011;9459;50.254;19.014;2023-07-08T08:34:21;6.70;;;2.28;;
18659;SDS011;9459;50.254;19.014;2023-07-08T08:36:49;3.05;;;2.10;;
18659;SDS011;9459;50.254;19.014;2023-07-08T08:39:22;1.80;;;1.50;;
18659;SDS011;9459;50.254;19.014;2023-07-08T08:41:51;1.83;;;1.67;;
18659;SDS011;9459;50.254;19.014;2023-07-08T08:44:23;2.78;;;1.55;;
18659;SDS011;9459;50.254;19.014;2023-07-08T08:46:57;2.17;;;1.40;;
18659;SDS011;9459;50.254;19.014;2023-07-08T08:49:30;3.78;;;1.70;;
18659;SDS011;9459;50.254;19.014;2023-07-08T08:52:02;3.28;;;1.60;;
18659;SDS011;9459;50.254;19.014;2023-07-08T08:54:31;1.67;;;1.50;;
18659;SDS011;9459;50.254;19.014;2023-07-08T08:57:02;2.10;;;1.73;;
18659;SDS011;9459;50.254;19.014;2023-07-08T08:59:42;1.85;;;1.65;;
18659;SDS011;9459;50.254;19.014;2023-07-08T09:02:23;2.20;;;1.92;;
18659;SDS011;9459;50.254;19.014;2023-07-08T09:04:56;2.17;;;1.98;;
18659;SDS011;9459;50.254;19.014;2023-07-08T09:07:26;2.42;;;1.90;;
18659;SDS011;9459;50.254;19.014;2023-07-08T09:09:58;2.28;;;1.55;;
18659;SDS011;9459;50.254;19.014;2023-07-08T09:12:30;2.47;;;1.90;;
18659;SDS011;9459;50.254;19.014;2023-07-08T09:15:03;1.70;;;1.60;;
18659;SDS011;9459;50.254;19.014;2023-07-08T09:17:39;1.85;;;1.50;;
18659;SDS011;9459;50.254;19.014;2023-07-08T09:20:12;1.92;;;1.77;;
18659;SDS011;9459;50.254;19.014;2023-07-08T09:22:46;4.18;;;2.35;;
18659;SDS011;9459;50.254;19.014;2023-07-08T09:25:22;4.45;;;1.92;;
18659;SDS011;9459;50.254;19.014;2023-07-08T09:27:53;2.70;;;1.83;;
18659;SDS011;9459;50.254;19.014;2023-07-08T09:30:23;1.65;;;1.50;;
18659;SDS011;9459;50.254;19.014;2023-07-08T09:32:53;1.55;;;1.40;;
18659;SDS011;9459;50.254;19.014;2023-07-08T09:35:22;2.45;;;1.70;;
18659;SDS011;9459;50.254;19.014;2023-07-08T09:37:51;1.95;;;1.70;;
18659;SDS011;9459;50.254;19.014;2023-07-08T09:40:21;2.33;;;1.92;;
18659;SDS011;9459;50.254;19.014;2023-07-08T09:42:51;1.90;;;1.70;;
18659;SDS011;9459;50.254;19.014;2023-07-08T09:45:24;3.10;;;1.80;;
18659;SDS011;9459;50.254;19.014;2023-07-08T09:47:52;3.25;;;1.90;;
18659;SDS011;9459;50.254;19.014;2023-07-08T09:50:23;1.77;;;1.67;;
18659;SDS011;9459;50.254;19.014;2023-07-08T09:52:54;1.88;;;1.60;;
18659;SDS011;9459;50.254;19.014;2023-07-08T09:55:24;2.22;;;2.03;;
18659;SDS011;9459;50.254;19.014;2023-07-08T09:57:54;2.83;;;2.00;;
18659;SDS011;9459;50.254;19.014;2023-07-08T10:00:29;1.98;;;1.52;;
18659;SDS011;9459;50.254;19.014;2023-07-08T10:03:02;2.05;;;1.73;;
18659;SDS011;9459;50.254;19.014;2023-07-08T10:05:33;1.90;;;1.80;;
18659;SDS011;9459;50.254;19.014;2023-07-08T10:08:08;1.70;;;1.60;;
18659;SDS011;9459;50.254;19.014;2023-07-08T10:10:40;1.98;;;1.77;;
18659;SDS011;9459;50.254;19.014;2023-07-08T10:13:11;5.73;;;2.13;;
18659;SDS011;9459;50.254;19.014;2023-07-08T10:15:46;2.72;;;1.73;;
18659;SDS011;9459;50.254;19.014;2023-07-08T10:18:16;2.30;;;1.98;;
18659;SDS011;9459;50.254;19.014;2023-07-08T10:20:47;2.60;;;2.08;;
18659;SDS011;9459;50.254;19.014;2023-07-08T10:23:23;1.52;;;1.42;;
18659;SDS011;9459;50.254;19.014;2023-07-08T10:25:56;1.95;;;1.75;;
18659;SDS011;9459;50.254;19.014;2023-07-08T10:28:31;3.08;;;1.70;;
18659;SDS011;9459;50.254;19.014;2023-07-08T10:31:10;3.03;;;2.05;;
18659;SDS011;9459;50.254;19.014;2023-07-08T10:33:48;3.05;;;2.00;;
18659;SDS011;9459;50.254;19.014;2023-07-08T10:36:24;5.10;;;2.10;;
18659;SDS011;9459;50.254;19.014;2023-07-08T10:38:59;2.45;;;1.83;;
18659;SDS011;9459;50.254;19.014;2023-07-08T10:41:42;2.97;;;1.80;;
18659;SDS011;9459;50.254;19.014;2023-07-08T10:44:17;2.42;;;1.58;;
18659;SDS011;9459;50.254;19.014;2023-07-08T10:46:53;2.83;;;1.83;;
18659;SDS011;9459;50.254;19.014;2023-07-08T10:49:30;2.08;;;1.73;;
18659;SDS011;9459;50.254;19.014;2023-07-08T10:52:07;2.15;;;1.70;;
18659;SDS011;9459;50.254;19.014;2023-07-08T10:54:51;2.45;;;1.70;;
18659;SDS011;9459;50.254;19.014;2023-07-08T10:57:41;1.70;;;1.60;;
18659;SDS011;9459;50.254;19.014;2023-07-08T11:00:19;1.83;;;1.70;;
18659;SDS011;9459;50.254;19.014;2023-07-08T11:03:03;1.60;;;1.50;;
18659;SDS011;9459;50.254;19.014;2023-07-08T11:05:40;1.60;;;1.50;;
18659;SDS011;9459;50.254;19.014;2023-07-08T11:08:11;1.85;;;1.55;;
18659;SDS011;9459;50.254;19.014;2023-07-08T11:10:45;2.17;;;1.70;;
18659;SDS011;9459;50.254;19.014;2023-07-08T11:13:21;2.95;;;1.30;;
18659;SDS011;9459;50.254;19.014;2023-07-08T11:15:52;1.60;;;1.50;;
18659;SDS011;9459;50.254;19.014;2023-07-08T11:18:25;2.25;;;1.60;;
18659;SDS011;9459;50.254;19.014;2023-07-08T11:20:59;3.08;;;1.90;;
18659;SDS011;9459;50.254;19.014;2023-07-08T11:23:31;2.97;;;1.70;;
18659;SDS011;9459;50.254;19.014;2023-07-08T11:26:07;2.03;;;1.52;;
18659;SDS011;9459;50.254;19.014;2023-07-08T11:28:40;2.03;;;1.45;;
18659;SDS011;9459;50.254;19.014;2023-07-08T11:31:08;2.08;;;1.88;;
18659;SDS011;9459;50.254;19.014;2023-07-08T11:36:07;2.55;;;1.67;;
18659;SDS011;9459;50.254;19.014;2023-07-08T11:38:37;2.85;;;1.70;;
18659;SDS011;9459;50.254;19.014;2023-07-08T11:41:16;1.70;;;1.40;;
18659;SDS011;9459;50.254;19.014;2023-07-08T11:43:47;2.33;;;1.90;;
18659;SDS011;9459;50.254;19.014;2023-07-08T11:46:19;2.78;;;1.60;;
18659;SDS011;9459;50.254;19.014;2023-07-08T11:48:51;2.17;;;1.50;;
18659;SDS011;9459;50.254;19.014;2023-07-08T11:51:22;3.40;;;1.60;;
18659;SDS011;9459;50.254;19.014;2023-07-08T11:53:58;1.88;;;1.50;;
18659;SDS011;9459;50.254;19.014;2023-07-08T11:56:28;2.45;;;1.60;;
18659;SDS011;9459;50.254;19.014;2023-07-08T11:58:59;2.00;;;1.50;;
18659;SDS011;9459;50.254;19.014;2023-07-08T12:01:37;1.65;;;1.55;;
18659;SDS011;9459;50.254;19.014;2023-07-08T12:04:23;1.67;;;1.42;;
18659;SDS011;9459;50.254;19.014;2023-07-08T12:07:02;2.65;;;1.67;;
18659;SDS011;9459;50.254;19.014;2023-07-08T12:09:35;1.85;;;1.38;;
18659;SDS011;9459;50.254;19.014;2023-07-08T12:12:06;2.92;;;1.50;;
18659;SDS011;9459;50.254;19.014;2023-07-08T12:14:40;2.45;;;1.70;;
18659;SDS011;9459;50.254;19.014;2023-07-08T12:17:10;2.00;;;1.80;;
18659;SDS011;9459;50.254;19.014;2023-07-08T12:19:42;1.88;;;1.67;;
18659;SDS011;9459;50.254;19.014;2023-07-08T12:22:11;2.13;;;1.63;;
18659;SDS011;9459;50.254;19.014;2023-07-08T12:24:40;3.05;;;1.67;;
18659;SDS011;9459;50.254;19.014;2023-07-08T12:27:09;3.60;;;1.80;;
18659;SDS011;9459;50.254;19.014;2023-07-08T12:29:40;3.95;;;1.92;;
18659;SDS011;9459;50.254;19.014;2023-07-08T12:32:10;2.25;;;1.98;;
18659;SDS011;9459;50.254;19.014;2023-07-08T12:34:42;2.00;;;1.80;;
18659;SDS011;9459;50.254;19.014;2023-07-08T12:37:11;2.73;;;2.47;;
18659;SDS011;9459;50.254;19.014;2023-07-08T12:39:41;4.50;;;1.73;;
18659;SDS011;9459;50.254;19.014;2023-07-08T12:42:10;2.20;;;1.65;;
18659;SDS011;9459;50.254;19.014;2023-07-08T12:44:39;2.83;;;1.67;;
18659;SDS011;9459;50.254;19.014;2023-07-08T12:47:10;2.15;;;1.60;;
18659;SDS011;9459;50.254;19.014;2023-07-08T12:49:39;3.35;;;1.80;;
18659;SDS011;9459;50.254;19.014;2023-07-08T12:52:18;2.00;;;1.50;;
18659;SDS011;9459;50.254;19.014;2023-07-08T12:54:49;3.38;;;1.63;;
18659;SDS011;9459;50.254;19.014;2023-07-08T12:57:17;2.08;;;1.65;;
18659;SDS011;9459;50.254;19.014;2023-07-08T12:59:46;2.05;;;1.60;;
18659;SDS011;9459;50.254;19.014;2023-07-08T13:02:15;2.47;;;1.73;;
18659;SDS011;9459;50.254;19.014;2023-07-08T13:04:46;2.22;;;1.60;;
18659;SDS011;9459;50.254;19.014;2023-07-08T13:07:19;3.47;;;2.22;;
18659;SDS011;9459;50.254;19.014;2023-07-08T13:09:54;1.70;;;1.35;;
18659;SDS011;9459;50.254;19.014;2023-07-08T13:12:22;2.88;;;1.67;;
18659;SDS011;9459;50.254;19.014;2023-07-08T13:14:52;1.77;;;1.60;;
18659;SDS011;9459;50.254;19.014;2023-07-08T13:17:21;2.60;;;1.70;;
18659;SDS011;9459;50.254;19.014;2023-07-08T13:19:49;2.83;;;1.80;;
18659;SDS011;9459;50.254;19.014;2023-07-08T13:22:19;2.70;;;1.40;;
18659;SDS011;9459;50.254;19.014;2023-07-08T13:24:57;1.88;;;1.60;;
18659;SDS011;9459;50.254;19.014;2023-07-08T13:27:27;2.33;;;1.83;;
18659;SDS011;9459;50.254;19.014;2023-07-08T13:29:56;1.73;;;1.38;;
18659;SDS011;9459;50.254;19.014;2023-07-08T13:32:38;2.72;;;1.40;;
18659;SDS011;9459;50.254;19.014;2023-07-08T13:35:19;1.45;;;1.35;;
18659;SDS011;9459;50.254;19.014;2023-07-08T13:37:49;4.30;;;1.50;;
18659;SDS011;9459;50.254;19.014;2023-07-08T13:40:19;1.65;;;1.40;;
18659;SDS011;9459;50.254;19.014;2023-07-08T13:42:50;1.92;;;1.40;;
18659;SDS011;9459;50.254;19.014;2023-07-08T13:45:22;1.30;;;1.20;;
18659;SDS011;9459;50.254;19.014;2023-07-08T13:47:59;1.50;;;1.40;;
18659;SDS011;9459;50.254;19.014;2023-07-08T13:50:34;3.30;;;1.55;;
18659;SDS011;9459;50.254;19.014;2023-07-08T13:53:19;2.42;;;1.67;;
18659;SDS011;9459;50.254;19.014;2023-07-08T13:55:58;1.73;;;1.40;;
18659;SDS011;9459;50.254;19.014;2023-07-08T13:58:28;1.50;;;1.20;;
18659;SDS011;9459;50.254;19.014;2023-07-08T14:00:57;1.42;;;1.25;;
18659;SDS011;9459;50.254;19.014;2023-07-08T14:03:27;0.90;;;0.90;;
18659;SDS011;9459;50.254;19.014;2023-07-08T14:05:56;2.45;;;1.45;;
18659;SDS011;9459;50.254;19.014;2023-07-08T14:08:24;2.63;;;1.52;;
18659;SDS011;9459;50.254;19.014;2023-07-08T14:10:53;1.55;;;1.45;;
18659;SDS011;9459;50.254;19.014;2023-07-08T14:13:23;1.40;;;1.10;;
18659;SDS011;9459;50.254;19.014;2023-07-08T14:15:54;1.23;;;1.13;;
18659;SDS011;9459;50.254;19.014;2023-07-08T14:18:22;1.75;;;1.30;;
18659;SDS011;9459;50.254;19.014;2023-07-08T14:20:51;1.80;;;1.35;;
18659;SDS011;9459;50.254;19.014;2023-07-08T14:23:20;2.15;;;1.50;;
18659;SDS011;9459;50.254;19.014;2023-07-08T14:25:49;2.03;;;1.60;;
18659;SDS011;9459;50.254;19.014;2023-07-08T14:28:17;3.10;;;1.73;;
18659;SDS011;9459;50.254;19.014;2023-07-08T14:30:47;1.67;;;1.58;;
18659;SDS011;9459;50.254;19.014;2023-07-08T14:33:16;1.40;;;1.10;;
18659;SDS011;9459;50.254;19.014;2023-07-08T14:35:44;1.85;;;1.25;;
18659;SDS011;9459;50.254;19.014;2023-07-08T14:38:14;1.83;;;1.50;;
18659;SDS011;9459;50.254;19.014;2023-07-08T14:40:43;1.67;;;1.42;;
18659;SDS011;9459;50.254;19.014;2023-07-08T14:43:13;1.70;;;1.40;;
18659;SDS011;9459;50.254;19.014;2023-07-08T14:45:46;1.67;;;1.52;;
18659;SDS011;9459;50.254;19.014;2023-07-08T14:48:17;1.98;;;1.55;;
18659;SDS011;9459;50.254;19.014;2023-07-08T14:50:46;1.95;;;1.50;;
18659;SDS011;9459;50.254;19.014;2023-07-08T14:53:15;1.95;;;1.20;;
18659;SDS011;9459;50.254;19.014;2023-07-08T14:55:45;1.27;;;1.17;;
18659;SDS011;9459;50.254;19.014;2023-07-08T14:58:17;1.83;;;1.50;;
18659;SDS011;9459;50.254;19.014;2023-07-08T15:00:50;1.80;;;1.45;;
18659;SDS011;9459;50.254;19.014;2023-07-08T15:03:19;1.70;;;1.40;;
18659;SDS011;9459;50.254;19.014;2023-07-08T15:05:48;1.95;;;1.40;;
18659;SDS011;9459;50.254;19.014;2023-07-08T15:08:17;1.40;;;1.30;;
18659;SDS011;9459;50.254;19.014;2023-07-08T15:10:47;1.60;;;1.30;;
18659;SDS011;9459;50.254;19.014;2023-07-08T15:13:16;1.75;;;1.05;;